createdAt,value
2018-03-29T00:00:03.427Z,97028.26
2018-03-29T00:02:33.648Z,97040.65
2018-03-29T00:05:02.673Z,97038.25
2018-03-29T00:07:31.878Z,97045.98
2018-03-29T00:10:01.019Z,97052.11
2018-03-29T00:12:29.908Z,97055.98
2018-03-29T00:14:59.694Z,97066.17
2018-03-29T00:17:29.973Z,97054.58
2018-03-29T00:19:59.145Z,97053.28
2018-03-29T00:22:28.066Z,97063.89
2018-03-29T00:24:58.331Z,97065.56
2018-03-29T00:27:27.234Z,97062.94
2018-03-29T00:29:56.245Z,97067.47
2018-03-29T00:32:26.446Z,97080.69
2018-03-29T00:34:55.346Z,97075.65
2018-03-29T00:37:24.250Z,97079.09
2018-03-29T00:39:53.446Z,97084.80
2018-03-29T00:42:23.329Z,97088.97
2018-03-29T00:44:52.235Z,97096.56
2018-03-29T00:47:21.441Z,97107.66
2018-03-29T00:49:50.329Z,97112.91
2018-03-29T00:52:19.183Z,97114.05
2018-03-29T00:54:48.370Z,97108.03
2018-03-29T00:57:17.331Z,97114.14
2018-03-29T00:59:46.897Z,97122.26
2018-03-29T01:02:16.093Z,97129.98
2018-03-29T01:04:44.935Z,97140.99
2018-03-29T01:07:13.828Z,97148.08
2018-03-29T01:09:46.798Z,97141.15
2018-03-29T01:12:15.725Z,97143.27
2018-03-29T01:14:44.610Z,97146.48
2018-03-29T01:17:13.815Z,97135.89
2018-03-29T01:19:42.908Z,97144.09
2018-03-29T01:22:11.852Z,97140.97
2018-03-29T01:24:42.077Z,97144.08
2018-03-29T01:27:10.940Z,97145.38
2018-03-29T01:29:39.851Z,97152.61
2018-03-29T01:32:10.163Z,97159.61
2018-03-29T01:34:39.017Z,97165.22
2018-03-29T01:37:07.934Z,97164.66
2018-03-29T01:39:37.276Z,97169.44
2018-03-29T01:42:06.306Z,97169.20
2018-03-29T01:44:35.502Z,97177.00
2018-03-29T01:47:04.364Z,97180.86
2018-03-29T01:49:33.548Z,97172.14
2018-03-29T01:52:02.420Z,97180.67
2018-03-29T01:54:31.278Z,97184.37
2018-03-29T01:57:00.136Z,97178.38
2018-03-29T01:59:29.429Z,97182.16
2018-03-29T02:01:58.379Z,97176.27
2018-03-29T02:04:27.344Z,97178.83
2018-03-29T02:06:56.327Z,97179.90
2018-03-29T02:09:25.228Z,97175.77
2018-03-29T02:11:54.138Z,97182.37
2018-03-29T02:14:23.280Z,97179.94
2018-03-29T02:16:52.179Z,97187.00
2018-03-29T02:19:21.104Z,97176.41
2018-03-29T02:21:49.986Z,97184.12
2018-03-29T02:24:19.098Z,97178.92
2018-03-29T02:26:48.054Z,97178.80
2018-03-29T02:29:16.993Z,97178.00
2018-03-29T02:31:46.090Z,97181.85
2018-03-29T02:34:15.331Z,97177.23
2018-03-29T02:36:44.253Z,97184.06
2018-03-29T02:39:13.278Z,97187.43
2018-03-29T02:41:42.153Z,97195.63
2018-03-29T02:44:12.391Z,97196.98
2018-03-29T02:46:41.277Z,97202.09
2018-03-29T02:49:12.484Z,97214.93
2018-03-29T02:51:41.335Z,97216.28
2018-03-29T02:54:10.485Z,97220.41
2018-03-29T02:56:39.348Z,97223.79
2018-03-29T02:59:08.260Z,97224.83
2018-03-29T03:01:37.143Z,97222.45
2018-03-29T03:04:06.374Z,97226.67
2018-03-29T03:06:35.364Z,97229.73
2018-03-29T03:09:04.634Z,97223.52
2018-03-29T03:11:33.522Z,97224.06
2018-03-29T03:14:03.824Z,97227.00
2018-03-29T03:16:32.737Z,97206.88
2018-03-29T03:19:01.636Z,97219.37
2018-03-29T03:21:30.570Z,97219.52
2018-03-29T03:23:59.722Z,97216.25
2018-03-29T03:26:28.679Z,97223.14
2018-03-29T03:28:57.665Z,97217.75
2018-03-29T03:31:26.647Z,97225.84
2018-03-29T03:34:33.287Z,97229.67
2018-03-29T03:37:15.567Z,97234.79
2018-03-29T03:39:44.906Z,97233.48
2018-03-29T03:42:13.723Z,97231.46
2018-03-29T03:44:42.576Z,97232.06
2018-03-29T03:47:11.571Z,97234.97
2018-03-29T03:49:45.373Z,97233.32
2018-03-29T03:52:14.226Z,97229.53
2018-03-29T03:54:43.194Z,97224.70
2018-03-29T03:57:13.089Z,97226.52
2018-03-29T03:59:42.048Z,97230.30
2018-03-29T04:02:11.081Z,97226.48
2018-03-29T04:04:40.276Z,97231.66
2018-03-29T04:07:09.162Z,97236.70
2018-03-29T04:09:38.233Z,97233.27
2018-03-29T04:12:07.518Z,97237.70
2018-03-29T04:14:36.419Z,97229.89
2018-03-29T04:17:05.278Z,97233.86
2018-03-29T04:19:34.290Z,97233.89
2018-03-29T04:22:04.527Z,97232.89
2018-03-29T04:24:33.442Z,97238.88
2018-03-29T04:27:02.404Z,97235.16
2018-03-29T04:29:31.865Z,97237.03
2018-03-29T04:32:00.808Z,97239.38
2018-03-29T04:34:29.633Z,97246.92
2018-03-29T04:36:58.807Z,97244.59
2018-03-29T04:39:27.683Z,97247.72
2018-03-29T04:41:56.564Z,97249.28
2018-03-29T04:44:25.727Z,97245.91
2018-03-29T04:46:54.655Z,97250.95
2018-03-29T04:49:23.549Z,97255.67
2018-03-29T04:51:52.586Z,97247.25
2018-03-29T04:54:21.427Z,97251.39
2018-03-29T04:56:50.355Z,97262.97
2018-03-29T04:59:19.352Z,97261.92
2018-03-29T05:01:48.514Z,97268.92
2018-03-29T05:04:17.384Z,97274.80
2018-03-29T05:06:46.702Z,97272.50
2018-03-29T05:09:17.860Z,97275.38
2018-03-29T05:11:46.980Z,97275.09
2018-03-29T05:14:15.864Z,97270.05
2018-03-29T05:16:44.687Z,97273.77
2018-03-29T05:19:13.556Z,97272.05
2018-03-29T05:21:42.794Z,97285.47
2018-03-29T05:24:11.614Z,97284.30
2018-03-29T05:26:41.077Z,97293.55
2018-03-29T05:29:10.278Z,97298.99
2018-03-29T05:31:39.155Z,97296.73
2018-03-29T05:34:08.011Z,97303.08
2018-03-29T05:36:37.208Z,97301.55
2018-03-29T05:39:06.390Z,97293.45
2018-03-29T05:41:35.509Z,97300.05
2018-03-29T05:44:04.734Z,97290.30
2018-03-29T05:46:33.663Z,97296.38
2018-03-29T05:49:02.602Z,97297.03
2018-03-29T05:51:31.498Z,97307.75
2018-03-29T05:54:00.359Z,97311.66
2018-03-29T05:56:29.339Z,97307.18
2018-03-29T05:58:58.460Z,97318.55
2018-03-29T06:01:27.493Z,97323.06
2018-03-29T06:03:56.428Z,97332.41
2018-03-29T06:06:26.645Z,97326.72
2018-03-29T06:08:55.480Z,97326.63
2018-03-29T06:11:24.331Z,97332.67
2018-03-29T06:13:57.334Z,97335.42
2018-03-29T06:16:26.281Z,97327.65
2018-03-29T06:18:59.459Z,97331.04
2018-03-29T06:21:28.613Z,97340.37
2018-03-29T06:23:57.481Z,97340.13
2018-03-29T06:26:26.312Z,97329.39
2018-03-29T06:28:55.522Z,97339.49
2018-03-29T06:31:24.415Z,97336.91
2018-03-29T06:33:54.058Z,97348.25
2018-03-29T06:36:22.997Z,97354.76
2018-03-29T06:38:51.899Z,97352.92
2018-03-29T06:41:20.762Z,97350.75
2018-03-29T06:43:50.958Z,97344.05
2018-03-29T06:46:19.928Z,97345.56
2018-03-29T06:48:50.252Z,97342.52
2018-03-29T06:51:19.431Z,97341.08
2018-03-29T06:53:48.335Z,97347.12
2018-03-29T06:56:17.237Z,97338.80
2018-03-29T06:58:46.333Z,97337.78
2018-03-29T07:01:15.291Z,97336.07
2018-03-29T07:03:45.438Z,97341.37
2018-03-29T07:06:14.661Z,97327.30
2018-03-29T07:08:43.568Z,97338.63
2018-03-29T07:11:12.489Z,97340.23
2018-03-29T07:13:43.883Z,97348.37
2018-03-29T07:16:12.741Z,97347.46
2018-03-29T07:18:43.059Z,97347.01
2018-03-29T07:21:13.296Z,97343.02
2018-03-29T07:23:42.160Z,97343.62
2018-03-29T07:26:11.112Z,97340.84
2018-03-29T07:28:40.281Z,97339.64
2018-03-29T07:31:09.591Z,97343.59
2018-03-29T07:33:39.071Z,97347.15
2018-03-29T07:36:11.724Z,97348.14
2018-03-29T07:38:40.666Z,97348.70
2018-03-29T07:41:10.956Z,97345.98
2018-03-29T07:43:40.121Z,97341.08
2018-03-29T07:46:09.022Z,97332.70
2018-03-29T07:48:37.919Z,97328.89
2018-03-29T07:51:07.002Z,97323.68
2018-03-29T07:53:35.906Z,97325.28
2018-03-29T07:56:04.946Z,97333.09
2018-03-29T07:58:35.291Z,97326.37
2018-03-29T08:01:04.311Z,97324.02
2018-03-29T08:03:33.230Z,97316.05
2018-03-29T08:06:03.420Z,97318.07
2018-03-29T08:08:32.443Z,97321.35
2018-03-29T08:11:02.081Z,97326.14
2018-03-29T08:13:32.240Z,97329.48
2018-03-29T08:16:01.763Z,97335.63
2018-03-29T08:18:30.688Z,97340.34
2018-03-29T08:20:59.923Z,97348.03
2018-03-29T08:23:28.757Z,97346.20
2018-03-29T08:25:57.645Z,97353.40
2018-03-29T08:28:26.726Z,97351.81
2018-03-29T08:30:55.559Z,97348.12
2018-03-29T08:33:26.173Z,97351.68
2018-03-29T08:35:56.362Z,97345.39
2018-03-29T08:38:25.227Z,97354.53
2018-03-29T08:40:54.218Z,97354.85
2018-03-29T08:43:23.435Z,97355.75
2018-03-29T08:45:52.394Z,97345.18
2018-03-29T08:48:21.299Z,97347.54
2018-03-29T08:50:50.566Z,97344.12
2018-03-29T08:53:20.567Z,97339.87
2018-03-29T08:55:49.464Z,97358.77
2018-03-29T08:58:18.726Z,97352.86
2018-03-29T09:00:47.866Z,97352.16
2018-03-29T09:03:17.723Z,97354.53
2018-03-29T09:05:46.951Z,97351.86
2018-03-29T09:08:16.432Z,97360.66
2018-03-29T09:10:45.406Z,97360.98
2018-03-29T09:13:15.631Z,97357.70
2018-03-29T09:15:46.382Z,97352.87
2018-03-29T09:18:15.324Z,97356.84
2018-03-29T09:20:44.411Z,97359.91
2018-03-29T09:23:13.374Z,97361.57
2018-03-29T09:25:42.433Z,97366.34
2018-03-29T09:28:11.606Z,97366.16
2018-03-29T09:30:40.516Z,97363.58
2018-03-29T09:33:09.375Z,97368.80
2018-03-29T09:35:39.601Z,97367.52
2018-03-29T09:38:08.534Z,97364.14
2018-03-29T09:40:37.477Z,97368.68
2018-03-29T09:43:06.735Z,97382.44
2018-03-29T09:45:35.619Z,97370.13
2018-03-29T09:48:04.605Z,97368.14
2018-03-29T09:50:33.747Z,97364.29
2018-03-29T09:53:02.694Z,97365.02
2018-03-29T09:55:31.602Z,97362.81
2018-03-29T09:58:00.741Z,97361.53
2018-03-29T10:00:34.989Z,97354.69
2018-03-29T10:03:08.105Z,97348.48
2018-03-29T10:05:38.217Z,97351.47
2018-03-29T10:08:07.144Z,97343.83
2018-03-29T10:10:37.498Z,97333.86
2018-03-29T10:13:06.493Z,97319.88
2018-03-29T10:15:35.343Z,97318.08
2018-03-29T10:18:04.617Z,97304.73
2018-03-29T10:20:33.610Z,97309.30
2018-03-29T10:23:02.522Z,97307.86
2018-03-29T10:25:32.856Z,97307.11
2018-03-29T10:28:01.786Z,97301.88
2018-03-29T10:30:30.638Z,97296.03
2018-03-29T10:33:00.413Z,97292.31
2018-03-29T10:35:29.304Z,97299.56
2018-03-29T10:37:58.250Z,97300.42
2018-03-29T10:40:27.521Z,97294.22
2018-03-29T10:42:56.426Z,97287.67
2018-03-29T10:45:25.399Z,97286.78
2018-03-29T10:47:55.094Z,97277.88
2018-03-29T10:50:24.017Z,97276.61
2018-03-29T10:52:52.998Z,97285.31
2018-03-29T10:55:22.172Z,97282.80
2018-03-29T10:57:51.185Z,97291.84
2018-03-29T11:00:20.055Z,97293.13
2018-03-29T11:02:52.529Z,97291.44
2018-03-29T11:05:21.408Z,97293.81
2018-03-29T11:07:50.241Z,97299.70
2018-03-29T11:10:19.653Z,97299.73
2018-03-29T11:12:48.705Z,97294.48
2018-03-29T11:15:17.677Z,97298.05
2018-03-29T11:17:48.131Z,97294.67
2018-03-29T11:20:17.024Z,97290.81
2018-03-29T11:22:45.914Z,97289.20
2018-03-29T11:25:15.108Z,97289.63
2018-03-29T11:27:43.957Z,97294.16
2018-03-29T11:30:12.911Z,97291.08
2018-03-29T11:32:42.179Z,97285.89
2018-03-29T11:35:11.204Z,97278.97
2018-03-29T11:37:40.134Z,97271.06
2018-03-29T11:40:09.329Z,97268.99
2018-03-29T11:42:39.086Z,97270.62
2018-03-29T11:45:08.838Z,97266.36
2018-03-29T11:47:38.001Z,97262.62
2018-03-29T11:50:06.886Z,97263.09
2018-03-29T11:52:35.980Z,97278.72
2018-03-29T11:55:05.282Z,97270.34
2018-03-29T11:57:34.220Z,97266.02
2018-03-29T12:00:03.269Z,97262.06
2018-03-29T12:02:33.489Z,97265.89
2018-03-29T12:05:02.423Z,97264.52
2018-03-29T12:07:32.681Z,97257.47
2018-03-29T12:10:01.931Z,97255.52
2018-03-29T12:12:31.018Z,97253.95
2018-03-29T12:14:59.982Z,97258.50
2018-03-29T12:17:29.359Z,97257.02
2018-03-29T12:19:58.354Z,97262.22
2018-03-29T12:22:27.289Z,97261.02
2018-03-29T12:24:56.535Z,97254.70
2018-03-29T12:27:26.398Z,97253.06
2018-03-29T12:29:55.326Z,97247.95
2018-03-29T12:32:24.701Z,97244.39
2018-03-29T12:34:53.586Z,97239.27
2018-03-29T12:37:22.571Z,97234.58
2018-03-29T12:39:51.871Z,97235.89
2018-03-29T12:42:20.800Z,97240.03
2018-03-29T12:44:49.695Z,97244.96
2018-03-29T12:47:19.075Z,97232.95
2018-03-29T12:49:49.242Z,97240.83
2018-03-29T12:52:19.106Z,97241.98
2018-03-29T12:54:59.242Z,97248.00
2018-03-29T12:57:39.060Z,97242.83
2018-03-29T13:00:08.279Z,97242.81
2018-03-29T13:02:37.271Z,97243.02
2018-03-29T13:05:06.208Z,97242.67
2018-03-29T13:07:35.473Z,97244.02
2018-03-29T13:10:04.489Z,97238.56
2018-03-29T13:12:35.548Z,97234.42
2018-03-29T13:15:05.020Z,97236.53
2018-03-29T13:17:33.940Z,97236.86
2018-03-29T13:20:02.852Z,97234.40
2018-03-29T13:22:32.023Z,97244.68
2018-03-29T13:25:00.942Z,97245.45
2018-03-29T13:27:29.921Z,97245.02
2018-03-29T13:30:00.195Z,97235.78
2018-03-29T13:32:29.128Z,97241.24
2018-03-29T13:34:58.076Z,97238.41
2018-03-29T13:37:27.251Z,97231.56
2018-03-29T13:39:56.189Z,97234.87
2018-03-29T13:42:25.076Z,97239.24
2018-03-29T13:44:54.258Z,97233.02
2018-03-29T13:47:24.311Z,97229.27
2018-03-29T13:49:53.819Z,97234.78
2018-03-29T13:52:23.011Z,97228.75
2018-03-29T13:54:52.111Z,97230.67
2018-03-29T13:57:21.019Z,97227.28
2018-03-29T13:59:50.937Z,97230.57
2018-03-29T14:02:19.858Z,97221.00
2018-03-29T14:04:48.727Z,97221.70
2018-03-29T14:07:18.657Z,97221.56
2018-03-29T14:09:47.483Z,97218.34
2018-03-29T14:12:16.349Z,97221.75
2018-03-29T14:14:45.505Z,97223.76
2018-03-29T14:17:14.447Z,97217.78
2018-03-29T14:19:44.688Z,97224.39
2018-03-29T14:22:13.996Z,97222.70
2018-03-29T14:24:43.041Z,97223.61
2018-03-29T14:27:12.009Z,97215.38
2018-03-29T14:29:41.230Z,97215.95
2018-03-29T14:32:10.200Z,97219.84
2018-03-29T14:34:39.244Z,97220.47
2018-03-29T14:37:09.289Z,97218.09
2018-03-29T14:39:38.343Z,97213.09
2018-03-29T14:42:07.174Z,97210.93
2018-03-29T14:44:36.339Z,97215.39
2018-03-29T14:47:05.226Z,97211.16
2018-03-29T14:49:34.166Z,97216.45
2018-03-29T14:52:04.330Z,97208.39
2018-03-29T14:54:33.211Z,97211.13
2018-03-29T14:57:02.118Z,97212.24
2018-03-29T14:59:31.404Z,97208.45
2018-03-29T15:02:00.385Z,97206.49
2018-03-29T15:04:29.285Z,97210.33
2018-03-29T15:06:58.508Z,97209.13
2018-03-29T15:09:27.459Z,97208.56
2018-03-29T15:11:57.329Z,97204.48
2018-03-29T15:14:27.498Z,97206.58
2018-03-29T15:16:56.440Z,97209.05
2018-03-29T15:19:25.403Z,97212.70
2018-03-29T15:21:54.792Z,97207.38
2018-03-29T15:24:23.763Z,97206.52
2018-03-29T15:26:54.322Z,97204.26
2018-03-29T15:29:23.498Z,97204.93
2018-03-29T15:31:52.456Z,97204.98
2018-03-29T15:34:21.438Z,97203.01
2018-03-29T15:36:50.652Z,97198.26
2018-03-29T15:39:19.726Z,97200.71
2018-03-29T15:41:48.644Z,97203.70
2018-03-29T15:44:18.966Z,97207.97
2018-03-29T15:46:47.950Z,97202.92
2018-03-29T15:49:16.951Z,97206.84
2018-03-29T15:51:48.404Z,97203.58
2018-03-29T15:54:17.432Z,97203.05
2018-03-29T15:56:46.379Z,97203.65
2018-03-29T15:59:15.686Z,97204.78
2018-03-29T16:01:44.612Z,97197.81
2018-03-29T16:04:13.500Z,97208.44
2018-03-29T16:06:42.924Z,97206.05
2018-03-29T16:09:12.004Z,97203.27
2018-03-29T16:11:40.884Z,97204.98
2018-03-29T16:14:11.063Z,97210.59
2018-03-29T16:16:40.957Z,97205.82
2018-03-29T16:19:09.883Z,97211.19
2018-03-29T16:21:39.320Z,97217.41
2018-03-29T16:24:08.257Z,97218.25
2018-03-29T16:26:37.203Z,97221.64
2018-03-29T16:29:06.346Z,97218.25
2018-03-29T16:31:35.328Z,97225.95
2018-03-29T16:34:05.542Z,97224.03
2018-03-29T16:36:34.998Z,97228.65
2018-03-29T16:39:04.098Z,97227.43
2018-03-29T16:41:33.747Z,97230.97
2018-03-29T16:44:03.308Z,97232.55
2018-03-29T16:46:32.576Z,97243.84
2018-03-29T16:49:01.733Z,97249.64
2018-03-29T16:51:35.621Z,97246.16
2018-03-29T16:54:04.975Z,97246.28
2018-03-29T16:56:34.106Z,97253.69
2018-03-29T16:59:03.739Z,97256.77
2018-03-29T17:01:32.897Z,97258.63
2018-03-29T17:04:02.155Z,97258.39
2018-03-29T17:06:32.464Z,97261.89
2018-03-29T17:09:01.654Z,97266.77
2018-03-29T17:11:30.767Z,97264.03
2018-03-29T17:14:03.906Z,97263.98
2018-03-29T17:16:32.901Z,97274.84
2018-03-29T17:19:02.418Z,97277.75
2018-03-29T17:21:31.815Z,97275.19
2018-03-29T17:24:00.848Z,97282.16
2018-03-29T17:26:29.797Z,97293.83
2018-03-29T17:28:59.323Z,97294.86
2018-03-29T17:31:28.946Z,97291.20
2018-03-29T17:33:58.146Z,97284.25
2018-03-29T17:36:27.589Z,97285.73
2018-03-29T17:38:56.817Z,97285.67
2018-03-29T17:41:26.286Z,97282.81
2018-03-29T17:43:55.638Z,97288.42
2018-03-29T17:46:24.821Z,97289.34
2018-03-29T17:48:54.266Z,97282.34
2018-03-29T17:51:23.833Z,97281.08
2018-03-29T17:53:52.962Z,97278.23
2018-03-29T17:56:22.227Z,97283.54
2018-03-29T17:58:52.621Z,97282.30
2018-03-29T18:01:21.839Z,97284.48
2018-03-29T18:03:50.892Z,97283.70
2018-03-29T18:06:19.942Z,97285.75
2018-03-29T18:08:49.440Z,97287.22
2018-03-29T18:11:18.409Z,97286.66
2018-03-29T18:13:47.651Z,97296.42
2018-03-29T18:16:16.685Z,97302.22
2018-03-29T18:18:47.638Z,97294.21
2018-03-29T18:21:16.859Z,97301.50
2018-03-29T18:23:45.976Z,97302.77
2018-03-29T18:26:15.126Z,97305.25
2018-03-29T18:28:44.327Z,97305.63
2018-03-29T18:31:13.372Z,97313.28
2018-03-29T18:33:42.374Z,97318.67
2018-03-29T18:36:12.611Z,97320.05
2018-03-29T18:38:41.718Z,97314.75
2018-03-29T18:41:10.652Z,97314.05
2018-03-29T18:43:39.903Z,97314.30
2018-03-29T18:46:08.911Z,97313.22
2018-03-29T18:48:38.185Z,97316.99
2018-03-29T18:51:07.736Z,97312.82
2018-03-29T18:53:36.797Z,97311.09
2018-03-29T18:56:05.770Z,97306.59
2018-03-29T18:58:35.128Z,97307.52
2018-03-29T19:01:04.057Z,97307.49
2018-03-29T19:03:32.984Z,97306.82
2018-03-29T19:06:02.966Z,97297.91
2018-03-29T19:08:31.991Z,97304.09
2018-03-29T19:11:01.114Z,97304.80
2018-03-29T19:13:30.422Z,97306.23
2018-03-29T19:15:59.765Z,97314.83
2018-03-29T19:18:28.763Z,97318.59
2018-03-29T19:21:00.038Z,97317.48
2018-03-29T19:23:28.987Z,97317.16
2018-03-29T19:25:57.979Z,97312.85
2018-03-29T19:28:27.312Z,97317.62
2018-03-29T19:30:56.442Z,97325.25
2018-03-29T19:33:25.522Z,97329.58
2018-03-29T19:35:54.833Z,97330.37
2018-03-29T19:38:23.928Z,97329.81
2018-03-29T19:40:52.946Z,97339.13
2018-03-29T19:43:22.437Z,97339.88
2018-03-29T19:45:51.415Z,97337.42
2018-03-29T19:48:20.627Z,97340.02
2018-03-29T19:50:51.216Z,97335.55
2018-03-29T19:53:20.282Z,97334.05
2018-03-29T19:55:52.073Z,97333.27
2018-03-29T19:58:22.431Z,97337.26
2018-03-29T20:00:51.383Z,97335.70
2018-03-29T20:03:20.439Z,97341.44
2018-03-29T20:05:49.797Z,97338.75
2018-03-29T20:08:19.893Z,97337.03
2018-03-29T20:10:48.768Z,97343.06
2018-03-29T20:13:18.021Z,97345.62
2018-03-29T20:15:47.025Z,97349.94
2018-03-29T20:18:16.129Z,97350.58
2018-03-29T20:20:45.577Z,97352.30
2018-03-29T20:23:14.616Z,97345.03
2018-03-29T20:25:43.551Z,97345.19
2018-03-29T20:28:12.902Z,97350.97
2018-03-29T20:30:41.926Z,97345.62
2018-03-29T20:33:11.005Z,97351.13
2018-03-29T20:35:41.091Z,97349.45
2018-03-29T20:38:10.242Z,97343.38
2018-03-29T20:40:39.271Z,97339.91
2018-03-29T20:43:08.840Z,97342.61
2018-03-29T20:45:37.795Z,97333.92
2018-03-29T20:48:06.798Z,97338.84
2018-03-29T20:50:37.112Z,97347.80
2018-03-29T20:53:06.140Z,97344.06
2018-03-29T20:55:35.035Z,97340.50
2018-03-29T20:58:04.304Z,97339.11
2018-03-29T21:00:33.252Z,97328.80
2018-03-29T21:03:02.213Z,97322.22
2018-03-29T21:05:31.458Z,97318.36
2018-03-29T21:08:00.371Z,97318.66
2018-03-29T21:10:29.316Z,97320.88
2018-03-29T21:13:00.866Z,97321.43
2018-03-29T21:15:30.771Z,97321.74
2018-03-29T21:17:59.895Z,97319.63
2018-03-29T21:20:29.177Z,97319.95
2018-03-29T21:22:59.936Z,97320.41
2018-03-29T21:25:28.887Z,97323.59
2018-03-29T21:27:58.366Z,97325.58
2018-03-29T21:30:27.461Z,97324.27
2018-03-29T21:32:56.517Z,97336.10
2018-03-29T21:35:26.852Z,97345.17
2018-03-29T21:37:55.788Z,97341.71
2018-03-29T21:40:24.800Z,97344.90
2018-03-29T21:42:54.269Z,97341.02
2018-03-29T21:45:23.364Z,97347.81
2018-03-29T21:47:53.088Z,97341.77
2018-03-29T21:50:22.334Z,97339.38
2018-03-29T21:52:51.255Z,97331.47
2018-03-29T21:55:20.259Z,97336.27
2018-03-29T21:57:51.536Z,97332.80
2018-03-29T22:00:20.720Z,97323.92
2018-03-29T22:02:49.635Z,97333.27
2018-03-29T22:05:18.909Z,97339.75
2018-03-29T22:07:48.147Z,97332.75
2018-03-29T22:10:17.141Z,97328.14
2018-03-29T22:12:46.321Z,97333.34
2018-03-29T22:15:15.281Z,97345.43
2018-03-29T22:17:44.259Z,97360.22
2018-03-29T22:20:13.492Z,97365.56
2018-03-29T22:22:44.863Z,97370.14
2018-03-29T22:25:13.833Z,97367.25
2018-03-29T22:30:13.644Z,97358.14
2018-03-29T22:32:42.643Z,97365.63
2018-03-29T22:35:11.849Z,97372.76
2018-03-29T22:37:40.709Z,97367.45
2018-03-29T22:40:09.654Z,97372.98
2018-03-29T22:42:41.775Z,97374.81
2018-03-29T22:45:10.834Z,97379.14
2018-03-29T22:47:39.803Z,97381.53
2018-03-29T22:50:10.194Z,97381.81
2018-03-29T22:52:39.093Z,97375.59
2018-03-29T22:55:08.011Z,97371.07
2018-03-29T23:00:08.357Z,97370.47
2018-03-29T23:02:39.579Z,97362.73
2018-03-29T23:05:08.797Z,97368.98
2018-03-29T23:07:37.735Z,97364.11
2018-03-29T23:10:06.633Z,97358.52
2018-03-29T23:12:35.790Z,97360.20
2018-03-29T23:15:04.693Z,97353.61
2018-03-29T23:17:33.550Z,97343.91
2018-03-29T23:20:03.292Z,97348.37
2018-03-29T23:22:33.443Z,97345.39
2018-03-29T23:25:02.342Z,97342.56
2018-03-29T23:27:32.260Z,97346.95
2018-03-29T23:30:01.187Z,97338.51
2018-03-29T23:32:33.697Z,97331.30
2018-03-29T23:35:02.967Z,97326.17
2018-03-29T23:37:31.905Z,97319.18
2018-03-29T23:40:00.853Z,97311.23
2018-03-29T23:42:30.256Z,97309.94
2018-03-29T23:44:59.129Z,97310.27
2018-03-29T23:47:28.006Z,97307.46
2018-03-29T23:49:57.223Z,97299.88
2018-03-29T23:52:26.098Z,97296.15
2018-03-29T23:54:54.987Z,97294.69
2018-03-29T23:57:27.969Z,97299.81
2018-03-29T23:59:56.861Z,97298.71
